createdAt,value
2022-11-04T00:02:18.136Z,5.91
2022-11-04T00:04:44.828Z,6.27
2022-11-04T00:07:31.447Z,6.33
2022-11-04T00:09:58.120Z,6.19
2022-11-04T00:12:24.881Z,6.37
2022-11-04T00:14:51.557Z,6.18
2022-11-04T00:17:24.084Z,6.65
2022-11-04T00:20:13.949Z,6.12
2022-11-04T00:23:00.828Z,6.75
2022-11-04T00:25:46.506Z,6.71
2022-11-04T00:28:35.817Z,6.56
2022-11-04T00:31:31.646Z,6.48
2022-11-04T00:33:58.862Z,6.64
2022-11-04T00:36:26.356Z,6.41
2022-11-04T00:38:53.756Z,6.55
2022-11-04T00:41:26.686Z,6.34
2022-11-04T00:43:59.081Z,6.58
2022-11-04T00:46:26.990Z,6.34
2022-11-04T00:48:53.938Z,6.25
2022-11-04T00:51:21.592Z,6.33
2022-11-04T00:53:48.947Z,6.18
2022-11-04T00:56:15.618Z,6.40
2022-11-04T00:58:42.514Z,6.20
2022-11-04T01:01:17.891Z,6.15
2022-11-04T01:03:46.412Z,6.26
2022-11-04T01:06:13.023Z,5.99
2022-11-04T01:08:40.406Z,5.86
2022-11-04T01:11:09.407Z,6.05
2022-11-04T01:13:36.991Z,6.12
2022-11-04T01:16:11.865Z,6.35
2022-11-04T01:18:41.625Z,6.04
2022-11-04T01:21:10.705Z,6.44
2022-11-04T01:23:37.823Z,6.58
2022-11-04T01:26:10.033Z,6.14
2022-11-04T01:28:36.741Z,6.27
2022-11-04T01:31:10.946Z,6.33
2022-11-04T01:33:38.594Z,6.44
2022-11-04T01:36:07.775Z,6.50
2022-11-04T01:38:34.934Z,6.59
2022-11-04T01:41:02.098Z,6.23
2022-11-04T01:43:49.871Z,6.37
2022-11-04T01:46:50.696Z,6.40
2022-11-04T01:49:23.307Z,6.43
2022-11-04T01:51:53.577Z,6.27
2022-11-04T01:54:21.181Z,6.08
2022-11-04T01:56:49.094Z,6.13
2022-11-04T01:59:25.670Z,6.05
2022-11-04T02:01:52.590Z,6.08
2022-11-04T02:04:26.791Z,6.14
2022-11-04T02:06:59.933Z,6.35
2022-11-04T02:09:32.475Z,6.00
2022-11-04T02:12:17.748Z,5.56
2022-11-04T02:14:47.979Z,6.44
2022-11-04T02:17:17.755Z,6.49
2022-11-04T02:19:53.406Z,6.46
2022-11-04T02:22:48.071Z,6.51
2022-11-04T02:25:39.206Z,6.49
2022-11-04T02:28:49.072Z,6.40
2022-11-04T02:31:52.160Z,6.66
2022-11-04T02:34:29.254Z,6.56
2022-11-04T02:37:09.291Z,6.51
2022-11-04T02:39:54.005Z,6.08
2022-11-04T02:42:33.107Z,6.44
2022-11-04T02:45:07.643Z,5.98
2022-11-04T02:47:41.936Z,6.28
2022-11-04T02:50:15.267Z,6.30
2022-11-04T02:52:57.928Z,6.37
2022-11-04T02:55:34.453Z,5.94
2022-11-04T02:58:04.922Z,5.86
2022-11-04T03:00:33.313Z,6.30
2022-11-04T03:03:07.260Z,6.42
2022-11-04T03:05:37.414Z,6.46
2022-11-04T03:08:28.378Z,6.34
2022-11-04T03:11:06.064Z,6.36
2022-11-04T03:13:39.865Z,6.34
2022-11-04T03:16:15.261Z,6.09
2022-11-04T03:19:01.464Z,6.35
2022-11-04T03:21:32.807Z,5.97
2022-11-04T03:24:00.448Z,6.34
2022-11-04T03:26:33.802Z,6.15
2022-11-04T03:29:18.709Z,6.40
2022-11-04T03:31:48.053Z,6.45
2022-11-04T03:34:14.832Z,6.49
2022-11-04T03:36:41.476Z,6.52
2022-11-04T03:39:08.178Z,6.95
2022-11-04T03:41:42.716Z,6.94
2022-11-04T03:44:09.501Z,6.69
2022-11-04T03:46:36.131Z,7.38
2022-11-04T03:49:03.303Z,7.18
2022-11-04T03:51:29.962Z,7.16
2022-11-04T03:53:57.989Z,7.01
2022-11-04T03:56:46.926Z,7.47
2022-11-04T03:59:44.385Z,7.62
2022-11-04T04:02:19.610Z,7.62
2022-11-04T04:05:01.920Z,7.51
2022-11-04T04:07:42.722Z,7.52
2022-11-04T04:10:34.988Z,7.55
2022-11-04T04:13:09.021Z,7.52
2022-11-04T04:15:46.088Z,7.70
2022-11-04T04:18:17.045Z,7.43
2022-11-04T04:20:47.934Z,7.44
2022-11-04T04:23:42.881Z,7.23
2022-11-04T04:26:30.825Z,7.04
2022-11-04T04:28:59.263Z,7.11
2022-11-04T04:31:46.974Z,7.03
2022-11-04T04:34:13.690Z,6.88
2022-11-04T04:36:54.380Z,6.98
2022-11-04T04:39:44.038Z,7.24
2022-11-04T04:42:29.678Z,7.57
2022-11-04T04:45:03.561Z,7.41
2022-11-04T04:47:43.073Z,7.54
2022-11-04T04:50:13.079Z,7.66
2022-11-04T04:52:44.947Z,7.13
2022-11-04T04:55:12.509Z,7.48
2022-11-04T04:57:39.202Z,7.41
2022-11-04T05:00:08.940Z,7.68
2022-11-04T05:02:35.810Z,7.61
2022-11-04T05:05:02.723Z,7.38
2022-11-04T05:07:29.786Z,7.41
2022-11-04T05:09:56.518Z,7.02
2022-11-04T05:12:23.191Z,7.26
2022-11-04T05:14:49.928Z,7.03
2022-11-04T05:17:16.579Z,6.83
2022-11-04T05:19:43.174Z,6.92
2022-11-04T05:22:09.844Z,6.67
2022-11-04T05:24:36.413Z,6.81
2022-11-04T05:27:03.173Z,6.81
2022-11-04T05:29:29.886Z,6.75
2022-11-04T05:31:57.050Z,6.69
2022-11-04T05:34:23.734Z,6.65
2022-11-04T05:36:50.373Z,6.85
2022-11-04T05:39:17.224Z,6.97
2022-11-04T05:41:43.840Z,6.92
2022-11-04T05:44:10.773Z,6.92
2022-11-04T05:46:37.543Z,6.65
2022-11-04T05:49:04.906Z,6.57
2022-11-04T05:51:32.436Z,6.08
2022-11-04T05:53:59.350Z,6.88
2022-11-04T05:56:26.013Z,6.69
2022-11-04T05:58:52.692Z,6.84
2022-11-04T06:01:37.301Z,6.97
2022-11-04T06:04:05.810Z,7.32
2022-11-04T06:06:35.884Z,7.27
2022-11-04T06:09:03.361Z,7.32
2022-11-04T06:11:30.759Z,7.25
2022-11-04T06:13:58.182Z,7.00
2022-11-04T06:16:25.443Z,7.20
2022-11-04T06:18:52.863Z,6.88
2022-11-04T06:21:25.413Z,7.04
2022-11-04T06:23:54.097Z,6.93
2022-11-04T06:26:23.864Z,6.88
2022-11-04T06:28:53.796Z,7.00
2022-11-04T06:31:21.225Z,7.16
2022-11-04T06:33:48.006Z,7.13
2022-11-04T06:36:15.769Z,7.29
2022-11-04T06:38:42.864Z,7.41
2022-11-04T06:41:13.718Z,7.00
2022-11-04T06:43:40.709Z,7.34
2022-11-04T06:46:31.764Z,7.18
2022-11-04T06:48:58.467Z,7.19
2022-11-04T06:51:25.749Z,7.43
2022-11-04T06:53:52.499Z,7.03
2022-11-04T06:56:19.150Z,7.52
2022-11-04T06:58:53.979Z,7.76
2022-11-04T07:01:22.634Z,7.68
2022-11-04T07:03:56.205Z,7.69
2022-11-04T07:06:23.095Z,7.36
2022-11-04T07:08:51.633Z,6.74
2022-11-04T07:11:21.160Z,7.65
2022-11-04T07:13:49.003Z,7.16
2022-11-04T07:16:16.723Z,7.37
2022-11-04T07:18:43.452Z,7.35
2022-11-04T07:21:10.685Z,7.33
2022-11-04T07:23:37.575Z,7.63
2022-11-04T07:26:07.287Z,7.41
2022-11-04T07:28:35.208Z,7.64
2022-11-04T07:31:04.169Z,7.59
2022-11-04T07:33:32.761Z,7.57
2022-11-04T07:36:03.171Z,7.49
2022-11-04T07:38:29.778Z,7.51
2022-11-04T07:40:58.219Z,7.69
2022-11-04T07:43:24.904Z,6.78
2022-11-04T07:46:03.738Z,7.70
2022-11-04T07:48:30.461Z,7.43
2022-11-04T07:50:59.695Z,7.41
2022-11-04T07:53:30.623Z,7.62
2022-11-04T07:55:57.784Z,7.10
2022-11-04T07:58:25.595Z,7.36
2022-11-04T08:00:58.203Z,7.29
2022-11-04T08:03:24.957Z,6.68
2022-11-04T08:05:59.343Z,7.33
2022-11-04T08:08:27.232Z,6.63
2022-11-04T08:11:00.504Z,6.96
2022-11-04T08:13:29.174Z,7.08
2022-11-04T08:15:56.779Z,7.23
2022-11-04T08:18:23.673Z,7.35
2022-11-04T08:20:51.959Z,7.77
2022-11-04T08:23:19.414Z,7.85
2022-11-04T08:25:46.487Z,7.59
2022-11-04T08:28:17.405Z,7.44
2022-11-04T08:30:59.477Z,7.72
2022-11-04T08:33:27.459Z,7.41
2022-11-04T08:35:56.653Z,6.95
2022-11-04T08:38:23.261Z,7.26
2022-11-04T08:40:50.040Z,7.48
2022-11-04T08:43:16.909Z,7.33
2022-11-04T08:45:46.033Z,7.45
2022-11-04T08:48:14.162Z,7.69
2022-11-04T08:50:41.069Z,7.59
2022-11-04T08:53:08.134Z,7.51
2022-11-04T08:55:35.668Z,7.70
2022-11-04T08:58:02.800Z,7.59
2022-11-04T09:00:29.619Z,7.61
2022-11-04T09:02:56.273Z,7.42
2022-11-04T09:05:23.187Z,7.48
2022-11-04T09:07:49.792Z,7.46
2022-11-04T09:10:17.307Z,7.47
2022-11-04T09:12:44.951Z,6.93
2022-11-04T09:15:12.258Z,7.03
2022-11-04T09:17:38.885Z,7.28
2022-11-04T09:20:06.460Z,7.06
2022-11-04T09:22:33.246Z,7.29
2022-11-04T09:24:59.893Z,7.28
2022-11-04T09:27:26.532Z,7.14
2022-11-04T09:29:53.199Z,7.44
2022-11-04T09:32:19.927Z,7.28
2022-11-04T09:34:46.711Z,7.20
2022-11-04T09:37:13.821Z,7.17
2022-11-04T09:39:40.476Z,7.08
2022-11-04T09:42:44.977Z,7.39
2022-11-04T09:45:23.112Z,7.38
2022-11-04T09:47:52.628Z,7.31
2022-11-04T09:50:25.190Z,7.48
2022-11-04T09:53:00.254Z,6.97
2022-11-04T09:55:39.267Z,7.22
2022-11-04T09:58:12.324Z,7.70
2022-11-04T10:00:40.077Z,7.64
2022-11-04T10:03:18.811Z,7.52
2022-11-04T10:05:56.772Z,7.74
2022-11-04T10:08:37.895Z,7.75
2022-11-04T10:11:26.609Z,8.16
2022-11-04T10:14:21.326Z,8.17
2022-11-04T10:16:56.966Z,8.20
2022-11-04T10:19:57.314Z,7.56
2022-11-04T10:22:52.760Z,8.08
2022-11-04T10:25:28.558Z,8.18
2022-11-04T10:27:55.310Z,8.12
2022-11-04T10:30:25.079Z,7.79
2022-11-04T10:33:27.832Z,7.95
2022-11-04T10:35:59.990Z,7.32
2022-11-04T10:38:33.602Z,7.92
2022-11-04T10:41:05.976Z,6.19
2022-11-04T10:43:39.640Z,7.83
2022-11-04T10:46:38.841Z,7.39
2022-11-04T10:50:06.854Z,7.63
2022-11-04T10:52:35.371Z,7.82
2022-11-04T10:55:02.141Z,7.47
2022-11-04T10:57:30.921Z,7.78
2022-11-04T11:00:01.690Z,8.10
2022-11-04T11:02:37.565Z,8.21
2022-11-04T11:05:15.062Z,8.13
2022-11-04T11:07:42.258Z,7.72
2022-11-04T11:10:24.172Z,7.64
2022-11-04T11:12:52.971Z,8.12
2022-11-04T11:15:22.594Z,8.17
2022-11-04T11:17:50.384Z,8.09
2022-11-04T11:20:25.445Z,7.87
2022-11-04T11:22:52.507Z,7.47
2022-11-04T11:25:35.752Z,7.85
2022-11-04T11:28:09.274Z,7.91
2022-11-04T11:30:44.051Z,7.79
2022-11-04T11:33:28.201Z,7.46
2022-11-04T11:35:58.911Z,7.82
2022-11-04T11:38:31.674Z,7.87
2022-11-04T11:41:28.462Z,7.87
2022-11-04T11:43:56.016Z,7.90
2022-11-04T11:46:29.119Z,7.86
2022-11-04T11:49:01.299Z,7.55
2022-11-04T11:51:32.875Z,7.78
2022-11-04T11:54:33.680Z,7.75
2022-11-04T11:57:15.063Z,7.64
2022-11-04T12:03:03.175Z,8.06
2022-11-04T12:11:38.698Z,7.56
2022-11-04T12:14:18.893Z,7.81
2022-11-04T12:17:23.294Z,8.21
2022-11-04T12:19:53.123Z,8.08
2022-11-04T12:22:47.696Z,8.20
2022-11-04T12:25:17.192Z,8.10
2022-11-04T12:27:55.984Z,8.08
2022-11-04T12:30:32.271Z,8.09
2022-11-04T12:33:14.483Z,8.08
2022-11-04T12:35:44.038Z,8.00
2022-11-04T12:38:36.322Z,7.96
2022-11-04T12:42:06.442Z,7.99
2022-11-04T12:44:36.750Z,7.95
2022-11-04T12:47:12.386Z,7.61
2022-11-04T12:49:54.399Z,7.86
2022-11-04T12:52:39.014Z,7.91
2022-11-04T12:55:24.075Z,7.78
2022-11-04T12:57:53.838Z,7.57
2022-11-04T13:00:24.744Z,7.39
2022-11-04T13:03:02.366Z,7.67
2022-11-04T13:05:46.384Z,7.37
2022-11-04T13:08:27.346Z,7.42
2022-11-04T13:11:06.177Z,7.81
2022-11-04T13:13:39.003Z,6.95
2022-11-04T13:16:12.350Z,7.67
2022-11-04T13:18:41.278Z,7.53
2022-11-04T13:21:14.305Z,7.68
2022-11-04T13:23:51.363Z,7.76
2022-11-04T13:26:18.661Z,7.70
2022-11-04T13:28:50.374Z,7.77
2022-11-04T13:31:32.224Z,7.64
2022-11-04T13:34:02.426Z,7.77
2022-11-04T13:36:47.382Z,7.93
2022-11-04T13:39:17.744Z,7.81
2022-11-04T13:41:56.801Z,7.88
2022-11-04T13:44:31.037Z,7.87
2022-11-04T13:47:01.590Z,7.79
2022-11-04T13:49:34.459Z,7.51
2022-11-04T13:52:13.531Z,7.46
2022-11-04T13:54:55.378Z,7.33
2022-11-04T13:57:25.564Z,7.74
2022-11-04T14:00:11.240Z,7.89
2022-11-04T14:02:42.375Z,7.86
2022-11-04T14:05:27.515Z,7.99
2022-11-04T14:08:03.438Z,7.87
2022-11-04T14:10:48.500Z,7.72
2022-11-04T14:13:27.559Z,7.95
2022-11-04T14:16:01.696Z,7.86
2022-11-04T14:18:33.982Z,7.80
2022-11-04T14:21:11.490Z,7.78
2022-11-04T14:23:40.018Z,7.73
2022-11-04T14:26:12.751Z,7.69
2022-11-04T14:28:43.586Z,7.34
2022-11-04T14:31:17.446Z,7.54
2022-11-04T14:33:53.709Z,7.51
2022-11-04T14:36:20.571Z,7.80
2022-11-04T14:38:53.234Z,7.83
2022-11-04T14:41:28.934Z,7.88
2022-11-04T14:44:08.014Z,7.42
2022-11-04T14:46:44.047Z,7.78
2022-11-04T14:49:44.850Z,7.86
2022-11-04T14:52:33.389Z,7.81
2022-11-04T14:55:15.314Z,8.14
2022-11-04T14:57:44.701Z,8.22
2022-11-04T15:00:33.290Z,8.15
2022-11-04T15:06:07.539Z,7.59
2022-11-04T15:08:43.879Z,7.83
2022-11-04T15:11:16.515Z,7.84
2022-11-04T15:13:49.365Z,7.84
2022-11-04T15:16:16.013Z,7.94
2022-11-04T15:18:43.037Z,7.45
2022-11-04T15:21:10.555Z,7.56
2022-11-04T15:23:43.907Z,7.37
2022-11-04T15:26:30.060Z,7.25
2022-11-04T15:29:00.138Z,7.20
2022-11-04T15:31:32.635Z,7.45
2022-11-04T15:34:02.168Z,7.43
2022-11-04T15:36:37.037Z,7.01
2022-11-04T15:39:19.640Z,7.25
2022-11-04T15:42:06.407Z,7.29
2022-11-04T15:44:36.600Z,7.05
2022-11-04T15:47:25.011Z,7.18
2022-11-04T15:49:53.717Z,7.19
2022-11-04T15:52:24.731Z,7.21
2022-11-04T15:54:54.412Z,7.02
2022-11-04T15:57:40.231Z,7.47
2022-11-04T16:00:14.483Z,7.11
2022-11-04T16:02:50.566Z,7.25
2022-11-04T16:05:22.588Z,7.19
2022-11-04T16:07:52.342Z,7.19
2022-11-04T16:10:31.328Z,7.19
2022-11-04T16:13:03.221Z,7.06
2022-11-04T16:15:40.159Z,6.64
2022-11-04T16:18:21.177Z,7.02
2022-11-04T16:20:48.888Z,7.15
2022-11-04T16:23:19.137Z,6.88
2022-11-04T16:25:46.014Z,7.22
2022-11-04T16:28:20.600Z,6.95
2022-11-04T16:31:22.417Z,6.95
2022-11-04T16:33:50.303Z,6.66
2022-11-04T16:36:23.649Z,6.83
2022-11-04T16:39:04.803Z,6.80
2022-11-04T16:41:36.123Z,6.70
2022-11-04T16:44:04.431Z,6.36
2022-11-04T16:46:32.857Z,6.29
2022-11-04T16:48:59.776Z,6.27
2022-11-04T16:51:26.556Z,6.15
2022-11-04T16:53:54.551Z,6.50
2022-11-04T16:56:24.563Z,6.25
2022-11-04T16:58:52.194Z,6.48
2022-11-04T17:01:19.375Z,6.53
2022-11-04T17:03:46.248Z,6.49
2022-11-04T17:06:15.089Z,6.23
2022-11-04T17:08:42.590Z,6.41
2022-11-04T17:11:12.678Z,5.89
2022-11-04T17:13:39.466Z,6.27
2022-11-04T17:16:07.614Z,6.21
2022-11-04T17:18:35.306Z,6.37
2022-11-04T17:21:06.320Z,6.26
2022-11-04T17:23:33.121Z,6.23
2022-11-04T17:25:59.834Z,6.18
2022-11-04T17:28:26.977Z,6.23
2022-11-04T17:30:53.902Z,6.18
2022-11-04T17:33:20.828Z,5.98
2022-11-04T17:35:49.773Z,6.62
2022-11-04T17:38:17.728Z,6.56
2022-11-04T17:41:03.583Z,6.35
2022-11-04T17:43:48.955Z,6.18
2022-11-04T17:46:34.985Z,6.14
2022-11-04T17:49:12.720Z,6.00
2022-11-04T17:51:41.260Z,6.28
2022-11-04T17:54:08.645Z,6.32
2022-11-04T17:56:35.838Z,6.49
2022-11-04T17:59:04.034Z,5.58
2022-11-04T18:01:32.880Z,6.05
2022-11-04T18:03:59.881Z,5.98
2022-11-04T18:06:26.787Z,5.90
2022-11-04T18:08:54.823Z,6.14
2022-11-04T18:11:41.518Z,6.00
2022-11-04T18:14:13.742Z,6.27
2022-11-04T18:16:44.777Z,6.18
2022-11-04T18:19:12.069Z,6.29
2022-11-04T18:21:38.756Z,6.29
2022-11-04T18:24:25.869Z,6.12
2022-11-04T18:26:52.875Z,6.17
2022-11-04T18:29:20.279Z,6.07
2022-11-04T18:31:49.420Z,6.02
2022-11-04T18:34:19.222Z,6.17
2022-11-04T18:36:47.972Z,6.05
2022-11-04T18:39:16.397Z,5.27
2022-11-04T18:41:43.542Z,5.66
2022-11-04T18:44:16.095Z,5.69
2022-11-04T18:46:43.447Z,5.38
2022-11-04T18:49:11.311Z,5.64
2022-11-04T18:51:37.972Z,5.40
2022-11-04T18:54:05.666Z,5.38
2022-11-04T18:56:33.287Z,5.39
2022-11-04T18:59:00.358Z,5.51
2022-11-04T19:01:30.326Z,5.47
2022-11-04T19:03:57.693Z,5.05
2022-11-04T19:06:27.629Z,5.28
2022-11-04T19:09:04.982Z,5.30
2022-11-04T19:11:42.812Z,5.33
2022-11-04T19:14:14.360Z,5.44
2022-11-04T19:16:42.796Z,5.43
2022-11-04T19:19:13.568Z,5.50
2022-11-04T19:21:40.160Z,5.42
2022-11-04T19:24:08.159Z,5.45
2022-11-04T19:26:36.150Z,4.83
2022-11-04T19:29:06.536Z,4.88
2022-11-04T19:31:33.378Z,4.78
2022-11-04T19:34:04.892Z,5.17
2022-11-04T19:36:33.461Z,5.02
2022-11-04T19:39:00.817Z,5.14
2022-11-04T19:41:46.647Z,4.93
2022-11-04T19:44:15.864Z,4.95
2022-11-04T19:46:43.264Z,5.02
2022-11-04T19:49:10.989Z,5.02
2022-11-04T19:51:37.764Z,4.97
2022-11-04T19:54:05.455Z,3.31
2022-11-04T19:56:33.733Z,5.17
2022-11-04T19:59:05.787Z,5.28
2022-11-04T20:01:34.477Z,5.28
2022-11-04T20:04:05.082Z,4.84
2022-11-04T20:06:33.134Z,5.07
2022-11-04T20:09:08.600Z,4.73
2022-11-04T20:11:56.738Z,4.93
2022-11-04T20:14:24.787Z,4.82
2022-11-04T20:16:52.006Z,4.61
2022-11-04T20:19:22.633Z,4.05
2022-11-04T20:21:50.014Z,4.74
2022-11-04T20:24:17.004Z,4.88
2022-11-04T20:26:44.206Z,4.42
2022-11-04T20:29:11.514Z,4.75
2022-11-04T20:31:39.596Z,4.83
2022-11-04T20:34:08.392Z,4.53
2022-11-04T20:36:36.734Z,4.51
2022-11-04T20:39:09.856Z,4.86
2022-11-04T20:41:36.518Z,4.80
2022-11-04T20:44:04.210Z,4.32
2022-11-04T20:46:34.094Z,4.48
2022-11-04T20:49:03.104Z,4.68
2022-11-04T20:51:32.264Z,4.71
2022-11-04T20:54:02.052Z,4.57
2022-11-04T20:56:31.389Z,4.87
2022-11-04T20:59:00.159Z,5.04
2022-11-04T21:01:33.022Z,5.00
2022-11-04T21:04:15.211Z,5.10
2022-11-04T21:06:42.480Z,4.84
2022-11-04T21:09:11.500Z,4.86
2022-11-04T21:11:39.667Z,4.02
2022-11-04T21:14:12.920Z,4.62
2022-11-04T21:16:40.020Z,3.75
2022-11-04T21:19:07.709Z,4.52
2022-11-04T21:21:35.037Z,4.25
2022-11-04T21:24:04.818Z,4.56
2022-11-04T21:26:34.211Z,4.52
2022-11-04T21:29:06.620Z,4.64
2022-11-04T21:31:36.002Z,4.62
2022-11-04T21:34:03.688Z,4.81
2022-11-04T21:36:31.179Z,4.84
2022-11-04T21:38:59.175Z,4.83
2022-11-04T21:41:28.659Z,4.75
2022-11-04T21:44:00.731Z,4.54
2022-11-04T21:46:30.445Z,4.69
2022-11-04T21:48:57.111Z,4.35
2022-11-04T21:51:26.429Z,4.47
2022-11-04T21:53:53.175Z,4.26
2022-11-04T21:56:23.178Z,4.77
2022-11-04T21:58:51.622Z,4.72
2022-11-04T22:01:20.321Z,4.82
2022-11-04T22:03:54.617Z,4.67
2022-11-04T22:06:21.757Z,4.64
2022-11-04T22:08:54.112Z,4.70
2022-11-04T22:11:26.961Z,4.75
2022-11-04T22:13:58.254Z,4.73
2022-11-04T22:16:27.733Z,4.18
2022-11-04T22:18:56.404Z,4.49
2022-11-04T22:21:24.811Z,4.39
2022-11-04T22:23:52.400Z,4.56
2022-11-04T22:26:28.419Z,4.69
2022-11-04T22:28:56.239Z,4.72
2022-11-04T22:31:25.978Z,4.77
2022-11-04T22:33:53.218Z,4.59
2022-11-04T22:36:23.460Z,4.48
2022-11-04T22:38:50.179Z,4.79
2022-11-04T22:41:22.839Z,4.48
2022-11-04T22:43:49.515Z,4.54
2022-11-04T22:46:24.530Z,4.32
2022-11-04T22:48:51.446Z,4.10
2022-11-04T22:51:18.322Z,4.40
2022-11-04T22:53:45.562Z,4.05
2022-11-04T22:56:14.319Z,4.42
2022-11-04T22:58:41.209Z,4.39
2022-11-04T23:01:10.716Z,4.40
2022-11-04T23:03:37.919Z,4.32
2022-11-04T23:06:08.992Z,4.28
2022-11-04T23:08:37.094Z,4.33
2022-11-04T23:11:27.943Z,4.17
2022-11-04T23:14:20.619Z,3.76
2022-11-04T23:17:12.906Z,4.35
2022-11-04T23:19:39.855Z,4.21
2022-11-04T23:22:26.031Z,4.37
2022-11-04T23:25:05.801Z,4.40
2022-11-04T23:27:55.567Z,4.29
2022-11-04T23:30:24.147Z,4.27
2022-11-04T23:33:16.828Z,4.15
2022-11-04T23:36:07.672Z,4.41
2022-11-04T23:38:35.423Z,4.20
2022-11-04T23:41:24.448Z,4.49
2022-11-04T23:43:51.092Z,4.14
2022-11-04T23:46:42.199Z,4.31
2022-11-04T23:49:12.740Z,4.32
2022-11-04T23:51:58.064Z,4.37
2022-11-04T23:54:43.984Z,4.65
2022-11-04T23:57:35.914Z,4.66
